Time;durP1;ratioP1;P1;durP2;ratioP2;P2;SDS_P1;SDS_P2;PMS_P1;PMS_P2;Temp;Humidity;BMP_temperature;BMP_pressure;BME280_temperature;BME280_humidity;BME280_pressure;Samples;Min_cycle;Max_cycle;Signal;HPM_P1;HPM_P2
2022/01/09 00:00:25;;;;;;;25.40;12.90;;;3.70;99.90;;;;;;5092808;28;20280;-61
2022/01/09 00:02:53;;;;;;;23.73;12.13;;;3.70;99.90;;;;;;5062680;28;20217;-61
2022/01/09 00:05:21;;;;;;;23.53;12.07;;;3.70;99.90;;;;;;5088342;28;20217;-61
2022/01/09 00:07:49;;;;;;;25.20;12.07;;;3.70;99.90;;;;;;5086695;28;20265;-62
2022/01/09 00:10:17;;;;;;;23.03;11.93;;;3.70;99.90;;;;;;5084111;28;20245;-62
2022/01/09 00:12:44;;;;;;;19.53;10.03;;;3.70;99.90;;;;;;5093340;28;20196;-62
2022/01/09 00:15:12;;;;;;;16.60;8.80;;;3.70;99.90;;;;;;5080927;28;20200;-61
2022/01/09 00:17:40;;;;;;;13.77;7.83;;;3.80;99.90;;;;;;5069497;28;20257;-61
2022/01/09 00:20:10;;;;;;;9.73;6.00;;;3.80;99.90;;;;;;5074679;28;20280;-60
2022/01/09 00:22:44;;;;;;;12.13;6.70;;;3.80;99.90;;;;;;5092819;28;20208;-61
2022/01/09 00:25:12;;;;;;;13.70;7.43;;;3.80;99.90;;;;;;5090476;28;20196;-62
2022/01/09 00:27:39;;;;;;;14.77;7.37;;;3.70;99.90;;;;;;5093140;28;20188;-62
2022/01/09 00:30:08;;;;;;;13.77;6.63;;;3.70;99.90;;;;;;5084760;28;20193;-61
2022/01/09 00:32:36;;;;;;;11.37;6.10;;;3.70;99.90;;;;;;5073454;28;20556;-61
2022/01/09 00:35:04;;;;;;;11.50;6.10;;;3.70;99.90;;;;;;5082574;28;20295;-62
2022/01/09 00:37:31;;;;;;;12.53;6.73;;;3.70;99.90;;;;;;5091370;28;20192;-61
2022/01/09 00:40:00;;;;;;;12.60;6.70;;;3.70;99.90;;;;;;5085283;28;20197;-61
2022/01/09 00:42:27;;;;;;;8.83;5.47;;;3.70;99.90;;;;;;5084555;28;20203;-61
2022/01/09 00:44:54;;;;;;;9.93;5.07;;;3.70;99.90;;;;;;5084154;28;20204;-61
2022/01/09 00:47:21;;;;;;;18.33;8.87;;;3.70;99.90;;;;;;5069317;28;20618;-61
2022/01/09 00:49:48;;;;;;;13.23;7.23;;;3.70;99.90;;;;;;5063382;28;20606;-61
2022/01/09 00:52:15;;;;;;;20.27;9.37;;;3.80;99.90;;;;;;5087118;28;20191;-62
2022/01/09 00:54:42;;;;;;;18.27;9.53;;;3.80;99.90;;;;;;5060498;28;20667;-62
2022/01/09 00:57:11;;;;;;;22.00;10.43;;;3.80;99.90;;;;;;5045221;28;20205;-60
2022/01/09 00:59:38;;;;;;;24.13;11.73;;;3.80;99.90;;;;;;5047680;28;20194;-61
2022/01/09 01:02:05;;;;;;;20.73;10.37;;;3.80;99.90;;;;;;5052587;28;20277;-61
2022/01/09 01:04:32;;;;;;;15.97;8.90;;;3.70;99.90;;;;;;5052163;28;20206;-61
2022/01/09 01:06:59;;;;;;;14.27;7.77;;;3.60;99.90;;;;;;5051848;28;20206;-62
2022/01/09 01:09:30;;;;;;;12.63;6.93;;;3.60;99.90;;;;;;5047010;28;20190;-61
2022/01/09 01:11:58;;;;;;;11.40;6.90;;;3.70;99.90;;;;;;5051746;28;20255;-62
2022/01/09 01:14:27;;;;;;;20.90;9.53;;;3.70;99.90;;;;;;5049585;28;20685;-63
2022/01/09 01:16:54;;;;;;;14.53;8.40;;;3.70;99.90;;;;;;5049332;28;20240;-62
2022/01/09 01:19:21;;;;;;;19.17;10.53;;;3.70;99.90;;;;;;5052296;28;20247;-62
2022/01/09 01:21:48;;;;;;;17.00;8.43;;;3.70;99.90;;;;;;5043080;28;20193;-62
2022/01/09 01:24:17;;;;;;;12.27;6.73;;;3.70;99.90;;;;;;5056534;28;20206;-62
2022/01/09 01:26:44;;;;;;;13.87;6.93;;;3.70;99.90;;;;;;5037985;28;20224;-62
2022/01/09 01:29:11;;;;;;;9.50;6.07;;;3.70;99.90;;;;;;5042293;28;20766;-62
2022/01/09 01:31:40;;;;;;;16.03;7.23;;;3.70;99.90;;;;;;5051660;28;20185;-62
2022/01/09 01:34:07;;;;;;;11.00;6.27;;;3.70;99.90;;;;;;5052205;28;20244;-61
2022/01/09 01:36:34;;;;;;;9.70;5.53;;;3.70;99.90;;;;;;5049854;28;20627;-61
2022/01/09 01:39:01;;;;;;;7.80;4.97;;;3.70;99.90;;;;;;5052524;28;20570;-61
2022/01/09 01:41:28;;;;;;;10.67;6.10;;;3.70;99.90;;;;;;5048627;28;20256;-61
2022/01/09 01:43:56;;;;;;;12.43;6.77;;;3.70;99.90;;;;;;5049855;28;20267;-60
2022/01/09 01:46:23;;;;;;;12.13;6.20;;;3.80;99.90;;;;;;5050489;28;20201;-61
2022/01/09 01:48:51;;;;;;;11.03;6.97;;;3.80;99.90;;;;;;5052009;28;20209;-61
2022/01/09 01:51:20;;;;;;;10.77;6.53;;;3.90;99.90;;;;;;5046593;28;20300;-61
2022/01/09 01:53:47;;;;;;;7.47;4.97;;;3.80;99.90;;;;;;5052227;28;20218;-61
2022/01/09 01:56:19;;;;;;;10.00;5.90;;;3.80;99.90;;;;;;5082477;28;20631;-62
2022/01/09 01:58:47;;;;;;;10.00;5.53;;;3.80;99.90;;;;;;5069458;28;20200;-61
2022/01/09 02:01:14;;;;;;;10.00;5.70;;;3.90;99.90;;;;;;5079519;28;20209;-62
2022/01/09 02:03:41;;;;;;;11.13;6.47;;;3.80;99.90;;;;;;5086742;28;20208;-62
2022/01/09 02:06:10;;;;;;;8.33;5.20;;;3.80;99.90;;;;;;5085390;28;20196;-62
2022/01/09 02:08:37;;;;;;;8.60;5.07;;;3.70;99.90;;;;;;5087372;28;20672;-61
2022/01/09 02:11:04;;;;;;;5.90;3.80;;;3.70;99.90;;;;;;5087945;28;20188;-62
2022/01/09 02:13:31;;;;;;;5.27;3.13;;;3.60;99.90;;;;;;5084992;28;20217;-62
2022/01/09 02:16:00;;;;;;;4.87;3.30;;;3.50;99.90;;;;;;5084141;28;20625;-62
2022/01/09 02:18:28;;;;;;;5.97;3.63;;;3.50;99.90;;;;;;5077208;28;20192;-63
2022/01/09 02:20:56;;;;;;;5.47;4.00;;;3.40;99.90;;;;;;5084542;28;20225;-63
2022/01/09 02:23:23;;;;;;;8.60;4.13;;;3.40;99.90;;;;;;5074499;28;20224;-63
2022/01/09 02:25:51;;;;;;;9.17;4.60;;;3.40;99.90;;;;;;5077989;28;20249;-62
2022/01/09 02:28:19;;;;;;;9.37;4.80;;;3.30;99.90;;;;;;5089580;28;20199;-62
2022/01/09 02:30:49;;;;;;;13.67;6.80;;;3.20;99.90;;;;;;5078892;28;20571;-61
2022/01/09 02:33:18;;;;;;;13.80;6.03;;;3.10;99.90;;;;;;5084288;28;20188;-61
2022/01/09 02:35:49;;;;;;;21.30;10.23;;;3.00;99.90;;;;;;5075975;28;20684;-62
2022/01/09 02:38:17;;;;;;;18.90;9.47;;;2.90;99.90;;;;;;5066232;28;20201;-62
2022/01/09 02:40:45;;;;;;;20.13;10.60;;;2.80;99.90;;;;;;5085227;28;20274;-62
2022/01/09 02:43:12;;;;;;;19.57;9.70;;;2.70;99.90;;;;;;5064475;28;20200;-62
2022/01/09 02:45:39;;;;;;;18.53;9.37;;;2.60;99.90;;;;;;5087852;28;20197;-63
2022/01/09 02:48:08;;;;;;;18.67;9.27;;;2.50;99.90;;;;;;5086055;28;20279;-63
2022/01/09 02:50:39;;;;;;;20.77;9.90;;;2.50;99.90;;;;;;5090364;28;20194;-62
2022/01/09 02:53:20;;;;;;;17.67;8.83;;;2.40;99.90;;;;;;5081235;28;20199;-63
2022/01/09 02:55:49;;;;;;;21.07;10.30;;;2.30;99.90;;;;;;5063949;28;20684;-63
2022/01/09 02:58:16;;;;;;;23.93;10.70;;;2.20;99.90;;;;;;5079949;28;20192;-64
2022/01/09 03:00:45;;;;;;;22.33;10.93;;;2.20;99.90;;;;;;5084692;28;20716;-63
2022/01/09 03:03:13;;;;;;;23.13;11.53;;;2.10;99.90;;;;;;5072722;28;20733;-62
2022/01/09 03:05:40;;;;;;;25.80;12.07;;;2.10;99.90;;;;;;5072916;28;20193;-64
2022/01/09 03:08:09;;;;;;;24.70;11.80;;;2.10;99.90;;;;;;5089346;28;20270;-63
2022/01/09 03:10:37;;;;;;;27.67;13.13;;;2.00;99.90;;;;;;5082857;28;20664;-63
2022/01/09 03:13:07;;;;;;;37.40;15.57;;;1.90;99.90;;;;;;5084810;28;20191;-63
2022/01/09 03:15:35;;;;;;;27.37;13.03;;;1.90;99.90;;;;;;5080117;28;20306;-63
2022/01/09 03:18:02;;;;;;;28.57;13.97;;;1.90;99.90;;;;;;5085085;28;20643;-62
2022/01/09 03:20:30;;;;;;;25.67;11.87;;;1.80;99.90;;;;;;5060803;28;20204;-63
2022/01/09 03:22:57;;;;;;;22.73;11.73;;;1.80;99.90;;;;;;5071555;28;20204;-63
2022/01/09 03:25:26;;;;;;;24.67;12.30;;;1.70;99.90;;;;;;5078923;28;20205;-62
2022/01/09 03:27:54;;;;;;;21.20;10.10;;;1.80;99.90;;;;;;5075075;28;20200;-63
2022/01/09 03:30:23;;;;;;;21.70;9.57;;;1.80;99.90;;;;;;5083015;28;20220;-63
2022/01/09 03:32:52;;;;;;;20.77;9.97;;;1.80;99.90;;;;;;5084468;28;20193;-63
2022/01/09 03:35:22;;;;;;;17.87;9.00;;;1.90;99.90;;;;;;5084367;28;20257;-62
2022/01/09 03:37:50;;;;;;;25.53;9.10;;;1.90;99.90;;;;;;5078143;28;20249;-61
2022/01/09 03:40:20;;;;;;;19.67;9.53;;;2.00;99.90;;;;;;5085642;28;20242;-61
2022/01/09 03:42:48;;;;;;;18.33;9.03;;;2.00;99.90;;;;;;5083663;28;20201;-62
2022/01/09 03:45:15;;;;;;;18.83;9.47;;;2.10;99.90;;;;;;5067318;28;20273;-62
2022/01/09 03:47:44;;;;;;;43.50;18.13;;;2.20;99.90;;;;;;5066190;28;20208;-62
2022/01/09 03:50:14;;;;;;;41.53;16.30;;;2.30;99.90;;;;;;5073338;28;20225;-61
2022/01/09 03:52:41;;;;;;;35.03;16.20;;;2.30;99.90;;;;;;5065625;28;20193;-62
2022/01/09 03:55:10;;;;;;;28.63;12.67;;;3.30;99.90;;;;;;5088068;28;20236;-62
2022/01/09 03:57:38;;;;;;;23.77;11.27;;;2.20;99.90;;;;;;5089449;28;20200;-62
2022/01/09 04:00:07;;;;;;;22.37;10.87;;;2.30;99.90;;;;;;5059555;28;20212;-62
2022/01/09 04:02:34;;;;;;;20.03;9.53;;;2.30;99.90;;;;;;5063600;28;20573;-62
2022/01/09 04:05:03;;;;;;;19.57;9.13;;;2.30;99.90;;;;;;5085196;28;20567;-63
2022/01/09 04:07:30;;;;;;;17.10;9.23;;;2.30;99.90;;;;;;5091186;28;20656;-63
2022/01/09 04:09:57;;;;;;;17.43;9.20;;;2.30;99.90;;;;;;5091991;28;20204;-65
2022/01/09 04:12:34;;;;;;;16.63;8.67;;;2.30;99.90;;;;;;5056552;28;20255;-63
2022/01/09 04:15:04;;;;;;;14.30;8.03;;;2.30;99.90;;;;;;5083362;28;20185;-64
2022/01/09 04:17:41;;;;;;;17.80;8.77;;;2.30;99.90;;;;;;5085997;28;20189;-64
2022/01/09 04:20:12;;;;;;;20.97;9.87;;;2.30;99.90;;;;;;5088474;28;20585;-61
2022/01/09 04:22:39;;;;;;;18.73;8.90;;;2.30;99.90;;;;;;5085725;28;20657;-62
2022/01/09 04:25:07;;;;;;;19.00;9.30;;;2.30;99.90;;;;;;5077796;28;20200;-63
2022/01/09 04:27:34;;;;;;;19.33;8.93;;;2.20;99.90;;;;;;5076021;28;20189;-62
2022/01/09 04:30:02;;;;;;;22.23;10.20;;;2.30;99.90;;;;;;5072290;28;20204;-63
2022/01/09 04:32:29;;;;;;;20.83;10.13;;;2.20;99.90;;;;;;5092396;28;20463;-63
2022/01/09 04:34:56;;;;;;;34.23;13.93;;;2.20;99.90;;;;;;5079365;28;20221;-63
2022/01/09 04:37:25;;;;;;;30.47;13.93;;;2.20;99.90;;;;;;5086956;28;20243;-62
2022/01/09 04:39:53;;;;;;;35.73;15.13;;;2.10;99.90;;;;;;5075670;28;20196;-61
2022/01/09 04:42:24;;;;;;;35.03;15.00;;;2.10;99.90;;;;;;5072399;28;20197;-62
2022/01/09 04:44:51;;;;;;;32.93;13.70;;;2.10;99.90;;;;;;5072931;28;20259;-61
2022/01/09 04:47:18;;;;;;;38.23;16.20;;;2.10;99.90;;;;;;5090365;28;20668;-63
2022/01/09 04:49:47;;;;;;;44.73;17.67;;;2.00;99.90;;;;;;5091096;28;20670;-62
2022/01/09 04:52:18;;;;;;;30.87;14.27;;;2.00;99.90;;;;;;5082872;28;20212;-62
2022/01/09 04:54:47;;;;;;;33.03;13.93;;;2.00;99.90;;;;;;5092271;28;20878;-62
2022/01/09 04:57:14;;;;;;;32.20;14.17;;;2.10;99.90;;;;;;5080992;28;20192;-62
2022/01/09 04:59:41;;;;;;;30.73;13.27;;;2.10;99.90;;;;;;5079315;28;20607;-61
2022/01/09 05:02:08;;;;;;;36.93;14.77;;;2.10;99.90;;;;;;5074668;28;20177;-61
2022/01/09 05:04:35;;;;;;;58.10;22.90;;;2.00;99.90;;;;;;5085070;28;20629;-62
2022/01/09 05:07:03;;;;;;;49.50;20.83;;;2.10;99.90;;;;;;5083953;28;20220;-62
2022/01/09 05:09:30;;;;;;;40.93;18.07;;;2.10;99.90;;;;;;5089143;28;20192;-61
2022/01/09 05:11:59;;;;;;;36.53;16.10;;;2.10;99.90;;;;;;5073631;28;20196;-62
2022/01/09 05:14:26;;;;;;;31.33;14.47;;;2.20;99.90;;;;;;5084444;28;20184;-62
2022/01/09 05:16:53;;;;;;;31.73;13.97;;;2.20;99.90;;;;;;5091285;28;20200;-63
2022/01/09 05:19:27;;;;;;;32.93;13.77;;;2.20;99.90;;;;;;5091412;28;20651;-63
2022/01/09 05:21:55;;;;;;;33.83;14.53;;;2.10;99.90;;;;;;5063537;28;20520;-62
2022/01/09 05:24:22;;;;;;;40.17;16.13;;;2.10;99.90;;;;;;5070527;28;20707;-63
2022/01/09 05:26:50;;;;;;;29.43;14.23;;;2.10;99.90;;;;;;5085173;28;20611;-63
2022/01/09 05:29:18;;;;;;;44.17;17.10;;;2.10;99.90;;;;;;5074024;28;20196;-63
2022/01/09 05:31:45;;;;;;;36.40;15.20;;;2.10;99.90;;;;;;5083959;28;20661;-63
2022/01/09 05:34:12;;;;;;;31.13;13.07;;;2.20;99.90;;;;;;5079408;28;20200;-64
2022/01/09 05:36:39;;;;;;;31.17;13.50;;;2.20;99.90;;;;;;5073973;28;20189;-63
2022/01/09 05:39:07;;;;;;;27.67;12.67;;;2.20;99.90;;;;;;5076091;28;20193;-62
2022/01/09 05:41:34;;;;;;;25.20;10.97;;;2.20;99.90;;;;;;5079996;28;20192;-62
2022/01/09 05:44:01;;;;;;;21.40;10.30;;;2.10;99.90;;;;;;5071380;28;20196;-62
2022/01/09 05:46:30;;;;;;;25.37;10.70;;;2.10;99.90;;;;;;5079455;28;20196;-62
2022/01/09 05:48:57;;;;;;;25.47;10.07;;;2.10;99.90;;;;;;5088180;28;20615;-61
2022/01/09 05:51:24;;;;;;;23.97;10.77;;;2.20;99.90;;;;;;5089319;28;20223;-62
2022/01/09 05:53:51;;;;;;;37.70;15.37;;;2.20;99.90;;;;;;5071398;28;20196;-63
2022/01/09 05:56:18;;;;;;;34.63;14.00;;;2.20;99.90;;;;;;5069256;28;20237;-63
2022/01/09 05:58:45;;;;;;;44.13;16.43;;;2.20;99.90;;;;;;5062476;28;20243;-63
2022/01/09 06:01:12;;;;;;;38.90;15.00;;;2.10;99.90;;;;;;5067457;28;20545;-63
2022/01/09 06:03:41;;;;;;;32.00;14.60;;;2.10;99.90;;;;;;5071590;28;20718;-63
2022/01/09 06:06:08;;;;;;;35.70;14.23;;;2.10;99.90;;;;;;5067694;28;20205;-62
2022/01/09 06:08:35;;;;;;;30.80;13.30;;;2.00;99.90;;;;;;5061646;28;20205;-63
2022/01/09 06:11:02;;;;;;;29.97;11.90;;;1.90;99.90;;;;;;5057206;28;20198;-64
2022/01/09 06:13:29;;;;;;;32.87;12.83;;;1.90;99.90;;;;;;5057735;28;20189;-63
2022/01/09 06:15:56;;;;;;;30.40;12.90;;;1.80;99.90;;;;;;5066404;28;20993;-64
2022/01/09 06:18:23;;;;;;;26.80;11.07;;;1.80;99.90;;;;;;5069897;28;20546;-63
2022/01/09 06:20:52;;;;;;;27.97;11.20;;;1.80;99.90;;;;;;5070881;28;20193;-63
2022/01/09 06:23:20;;;;;;;34.23;12.47;;;1.80;99.90;;;;;;5069341;28;20254;-62
2022/01/09 06:25:48;;;;;;;28.70;11.83;;;1.90;99.90;;;;;;5070497;28;20205;-61
2022/01/09 06:28:15;;;;;;;28.00;10.77;;;2.00;99.90;;;;;;5068871;28;20193;-62
2022/01/09 06:30:42;;;;;;;39.50;15.17;;;2.00;99.90;;;;;;5056546;28;20204;-63
2022/01/09 06:33:10;;;;;;;40.53;15.07;;;2.00;99.90;;;;;;5064854;28;20657;-64
2022/01/09 06:35:37;;;;;;;32.13;13.63;;;2.00;99.90;;;;;;5063233;28;20193;-63
2022/01/09 06:38:06;;;;;;;36.03;14.03;;;2.00;99.90;;;;;;5056406;28;20185;-62
2022/01/09 06:40:34;;;;;;;28.50;11.97;;;2.10;99.90;;;;;;5058485;28;20217;-63
2022/01/09 06:43:02;;;;;;;26.23;11.93;;;2.10;99.90;;;;;;5058799;28;20281;-63
2022/01/09 06:45:29;;;;;;;28.00;12.10;;;2.00;99.90;;;;;;5063685;28;20217;-63
2022/01/09 06:47:57;;;;;;;35.30;14.13;;;2.10;99.90;;;;;;5057558;28;20220;-63
2022/01/09 06:50:25;;;;;;;29.50;13.70;;;2.10;99.90;;;;;;5056243;28;20411;-63
2022/01/09 06:52:52;;;;;;;33.43;13.47;;;2.10;99.90;;;;;;5062265;28;20210;-63
2022/01/09 06:55:21;;;;;;;26.87;10.90;;;2.10;99.90;;;;;;5074666;28;20224;-63
2022/01/09 06:57:48;;;;;;;29.77;12.03;;;2.10;99.90;;;;;;5083050;28;20664;-64
2022/01/09 07:00:17;;;;;;;28.10;12.17;;;2.10;99.90;;;;;;5081560;28;20188;-62
2022/01/09 07:02:45;;;;;;;26.37;11.90;;;2.10;99.90;;;;;;5071368;28;20303;-64
2022/01/09 07:05:12;;;;;;;30.50;12.57;;;2.10;99.90;;;;;;5090727;28;20208;-64
2022/01/09 07:07:40;;;;;;;25.97;12.07;;;2.10;99.90;;;;;;5090176;28;20275;-63
2022/01/09 07:10:08;;;;;;;32.07;12.87;;;2.10;99.90;;;;;;5090494;28;20199;-62
2022/01/09 07:12:37;;;;;;;30.37;14.03;;;2.10;99.90;;;;;;5071394;28;20197;-63
2022/01/09 07:15:04;;;;;;;35.00;13.77;;;2.10;99.90;;;;;;5083097;28;20187;-62
2022/01/09 07:17:32;;;;;;;35.30;15.53;;;2.10;99.90;;;;;;5064378;28;20193;-63
2022/01/09 07:19:59;;;;;;;25.73;11.97;;;2.10;99.90;;;;;;5073518;28;20280;-63
2022/01/09 07:22:27;;;;;;;34.43;14.10;;;2.20;99.90;;;;;;5087875;28;20605;-64
2022/01/09 07:24:54;;;;;;;35.07;14.27;;;2.20;99.90;;;;;;5079748;28;20292;-64
2022/01/09 07:27:21;;;;;;;31.43;13.43;;;2.20;99.90;;;;;;5079318;28;20203;-64
2022/01/09 07:29:50;;;;;;;26.30;13.03;;;2.10;99.90;;;;;;5077842;28;20249;-63
2022/01/09 07:32:18;;;;;;;41.83;17.17;;;2.10;99.90;;;;;;5088871;28;20188;-61
2022/01/09 07:34:45;;;;;;;31.80;14.43;;;2.20;99.90;;;;;;5090346;28;20193;-62
2022/01/09 07:37:12;;;;;;;34.97;16.03;;;2.20;99.90;;;;;;5054124;28;20221;-62
2022/01/09 07:39:39;;;;;;;37.93;16.70;;;2.10;99.90;;;;;;5082411;28;20218;-62
2022/01/09 07:42:07;;;;;;;35.10;15.13;;;2.10;99.90;;;;;;5084441;28;20193;-62
2022/01/09 07:44:34;;;;;;;32.50;14.87;;;2.00;99.90;;;;;;5085755;28;20196;-62
2022/01/09 07:47:02;;;;;;;34.67;16.27;;;2.00;99.90;;;;;;5088924;28;20200;-63
2022/01/09 07:49:30;;;;;;;31.50;15.80;;;2.00;99.90;;;;;;5083552;28;20193;-63
2022/01/09 07:51:57;;;;;;;34.23;15.67;;;1.90;99.90;;;;;;5087755;28;20246;-64
2022/01/09 07:54:24;;;;;;;34.73;16.30;;;1.90;99.90;;;;;;5087061;28;20207;-63
2022/01/09 07:56:51;;;;;;;34.07;15.53;;;1.80;99.90;;;;;;5079543;28;20196;-63
2022/01/09 07:59:18;;;;;;;31.53;14.77;;;1.80;99.90;;;;;;5081975;28;20197;-63
2022/01/09 08:01:45;;;;;;;27.93;13.60;;;1.80;99.90;;;;;;5089670;28;20196;-63
2022/01/09 08:04:13;;;;;;;38.77;15.43;;;1.80;99.90;;;;;;5093537;28;20238;-62
2022/01/09 08:06:40;;;;;;;37.67;15.87;;;1.80;99.90;;;;;;5085529;28;20200;-60
2022/01/09 08:09:07;;;;;;;36.63;14.87;;;1.90;99.90;;;;;;5073730;28;20361;-62
2022/01/09 08:11:35;;;;;;;37.97;16.90;;;1.90;99.90;;;;;;5091086;28;20265;-60
2022/01/09 08:14:02;;;;;;;31.93;14.87;;;1.90;99.90;;;;;;5082044;28;20205;-62
2022/01/09 08:16:29;;;;;;;30.83;13.70;;;1.90;99.90;;;;;;5068384;28;20734;-62
2022/01/09 08:18:56;;;;;;;38.07;17.27;;;1.90;99.90;;;;;;5076633;28;20189;-61
2022/01/09 08:21:25;;;;;;;34.63;14.90;;;1.90;99.90;;;;;;5078910;28;20278;-62
2022/01/09 08:23:52;;;;;;;31.17;13.47;;;2.00;99.90;;;;;;5071989;28;20212;-62
2022/01/09 08:26:19;;;;;;;31.40;14.37;;;2.00;99.90;;;;;;5088553;28;20216;-62
2022/01/09 08:28:48;;;;;;;27.50;12.63;;;2.00;99.90;;;;;;5088889;28;20193;-63
2022/01/09 08:31:16;;;;;;;24.47;11.00;;;1.90;99.90;;;;;;5086602;28;20224;-63
2022/01/09 08:33:43;;;;;;;26.10;12.10;;;1.90;99.90;;;;;;5071885;28;20655;-63
2022/01/09 08:36:10;;;;;;;25.83;10.97;;;1.80;99.90;;;;;;5083115;28;20197;-63
2022/01/09 08:38:39;;;;;;;26.73;11.30;;;1.80;99.90;;;;;;5079058;28;20247;-62
2022/01/09 08:41:06;;;;;;;28.00;12.40;;;1.80;99.90;;;;;;5082983;28;20241;-62
2022/01/09 08:43:36;;;;;;;24.90;12.10;;;1.80;99.90;;;;;;5082500;28;20197;-62
2022/01/09 08:46:03;;;;;;;21.27;10.73;;;1.80;99.90;;;;;;5083247;28;20212;-62
2022/01/09 08:48:30;;;;;;;22.00;10.50;;;1.90;99.90;;;;;;5088832;28;20200;-63
2022/01/09 08:50:58;;;;;;;23.47;11.20;;;1.80;99.90;;;;;;5062573;28;20220;-63
2022/01/09 08:53:25;;;;;;;24.83;11.27;;;1.80;99.90;;;;;;5090580;28;20193;-64
2022/01/09 08:55:54;;;;;;;20.13;10.67;;;1.70;99.90;;;;;;5088131;28;20251;-62
2022/01/09 08:58:21;;;;;;;30.27;12.60;;;1.70;99.90;;;;;;5092493;28;20188;-64
2022/01/09 09:00:48;;;;;;;22.83;11.10;;;1.80;99.90;;;;;;5068040;28;20201;-62
2022/01/09 09:03:15;;;;;;;24.60;11.50;;;1.90;99.90;;;;;;5066963;28;20671;-62
2022/01/09 09:05:42;;;;;;;21.83;10.40;;;1.90;99.90;;;;;;5086460;28;20285;-61
2022/01/09 09:08:09;;;;;;;18.30;9.03;;;1.90;99.90;;;;;;5083138;28;20603;-62
2022/01/09 09:10:36;;;;;;;21.83;10.00;;;2.00;99.90;;;;;;5064644;28;20233;-61
2022/01/09 09:13:05;;;;;;;24.33;10.47;;;2.00;99.90;;;;;;5089449;28;20539;-61
2022/01/09 09:15:32;;;;;;;19.67;9.70;;;2.00;99.90;;;;;;5079825;28;20584;-62
2022/01/09 09:17:59;;;;;;;25.97;10.97;;;2.10;99.90;;;;;;5087635;28;20254;-64
2022/01/09 09:20:27;;;;;;;27.33;11.67;;;2.20;99.90;;;;;;5080955;28;20259;-64
2022/01/09 09:22:54;;;;;;;24.47;10.90;;;2.10;99.90;;;;;;5092107;28;20200;-64
2022/01/09 09:25:21;;;;;;;27.67;12.47;;;2.10;99.90;;;;;;5070304;28;20201;-63
2022/01/09 09:27:48;;;;;;;23.40;10.67;;;2.00;99.90;;;;;;5083776;28;20258;-63
2022/01/09 09:30:17;;;;;;;26.87;11.70;;;2.00;99.90;;;;;;5079903;28;20200;-63
2022/01/09 09:32:44;;;;;;;33.83;14.73;;;2.00;99.90;;;;;;5092184;28;20197;-64
2022/01/09 09:35:12;;;;;;;29.03;13.20;;;2.00;99.90;;;;;;5086853;28;20223;-63
2022/01/09 09:37:40;;;;;;;28.97;12.63;;;2.00;99.90;;;;;;5082152;28;20297;-62
2022/01/09 09:40:08;;;;;;;31.90;14.47;;;2.00;99.90;;;;;;5091082;28;20725;-61
2022/01/09 09:42:36;;;;;;;28.60;12.67;;;2.00;99.90;;;;;;5086346;28;20559;-61
2022/01/09 09:45:05;;;;;;;31.90;13.53;;;2.10;99.90;;;;;;5080272;28;20663;-60
2022/01/09 09:47:34;;;;;;;28.00;13.03;;;2.10;99.90;;;;;;5078306;28;20208;-61
2022/01/09 09:50:02;;;;;;;30.93;13.40;;;2.20;99.90;;;;;;5080924;28;20241;-62
2022/01/09 09:52:30;;;;;;;24.83;10.90;;;2.20;99.90;;;;;;5090215;28;20659;-61
2022/01/09 09:54:57;;;;;;;25.67;11.73;;;2.20;99.90;;;;;;5081770;28;20235;-62
2022/01/09 09:57:25;;;;;;;26.73;12.23;;;2.20;99.90;;;;;;5089875;28;20598;-61
2022/01/09 10:00:00;;;;;;;30.80;12.73;;;2.20;99.90;;;;;;5064422;28;20219;-62
2022/01/09 10:02:42;;;;;;;28.93;11.83;;;2.20;99.90;;;;;;5085254;28;20560;-64
2022/01/09 10:05:10;;;;;;;33.40;13.03;;;2.30;99.90;;;;;;5077265;28;20235;-62
2022/01/09 10:07:38;;;;;;;28.63;13.53;;;2.30;99.90;;;;;;5060958;28;20618;-63
2022/01/09 10:10:09;;;;;;;33.70;14.17;;;2.40;99.90;;;;;;5078084;28;20265;-62
2022/01/09 10:12:37;;;;;;;37.57;15.83;;;2.40;99.90;;;;;;5084226;28;20667;-62
2022/01/09 10:15:06;;;;;;;29.30;14.77;;;2.50;99.90;;;;;;5078405;28;20192;-61
2022/01/09 10:17:34;;;;;;;36.73;15.30;;;2.50;99.90;;;;;;5086184;28;20249;-62
2022/01/09 10:20:10;;;;;;;33.23;14.37;;;2.60;99.90;;;;;;5064500;28;20197;-62
2022/01/09 10:22:40;;;;;;;35.63;15.20;;;2.70;99.90;;;;;;5053680;28;20197;-62
2022/01/09 10:25:27;;;;;;;27.80;12.17;;;2.80;99.90;;;;;;5086407;28;20269;-62
2022/01/09 10:28:03;;;;;;;34.87;14.90;;;2.80;99.90;;;;;;5077429;28;20249;-62
2022/01/09 10:30:32;;;;;;;26.80;12.37;;;2.90;99.90;;;;;;5087653;28;20655;-63
2022/01/09 10:33:00;;;;;;;31.80;14.00;;;3.00;99.90;;;;;;5086295;28;20204;-62
2022/01/09 10:35:29;;;;;;;35.40;15.03;;;3.00;99.90;;;;;;5084014;28;20196;-62
2022/01/09 10:38:19;;;;;;;34.03;14.97;;;3.10;99.90;;;;;;5071359;28;20725;-62
2022/01/09 10:40:49;;;;;;;33.73;15.57;;;3.10;99.90;;;;;;5084646;28;20189;-62
2022/01/09 10:43:18;;;;;;;38.73;17.57;;;3.10;99.90;;;;;;5087185;28;20192;-61
2022/01/09 10:45:47;;;;;;;41.47;18.43;;;3.10;99.90;;;;;;5085288;28;20279;-61
2022/01/09 10:48:19;;;;;;;33.40;16.10;;;3.20;99.90;;;;;;5071780;28;20227;-61
2022/01/09 10:50:49;;;;;;;38.10;18.30;;;3.30;99.90;;;;;;5084856;28;20185;-61
2022/01/09 10:53:25;;;;;;;34.90;16.03;;;3.20;99.90;;;;;;5078643;28;20197;-62
2022/01/09 10:56:14;;;;;;;36.83;14.40;;;3.20;99.90;;;;;;5061251;28;20239;-62
2022/01/09 10:58:43;;;;;;;40.77;17.27;;;3.20;99.90;;;;;;5063820;28;20698;-61
2022/01/09 11:01:21;;;;;;;39.27;17.20;;;3.20;99.90;;;;;;5077491;28;20262;-61
2022/01/09 11:03:51;;;;;;;33.13;15.17;;;3.20;99.90;;;;;;5070660;28;20725;-62
2022/01/09 11:06:20;;;;;;;29.20;13.37;;;3.30;99.90;;;;;;5064248;28;20700;-61
2022/01/09 11:08:48;;;;;;;30.83;13.43;;;3.30;99.90;;;;;;5071596;28;21005;-62
2022/01/09 11:11:26;;;;;;;25.43;12.70;;;3.40;99.90;;;;;;5080163;28;20203;-61
2022/01/09 11:13:55;;;;;;;33.33;15.60;;;3.40;99.90;;;;;;5083799;28;20226;-61
2022/01/09 11:16:38;;;;;;;34.97;14.73;;;3.30;99.90;;;;;;5061836;28;20556;-61
2022/01/09 11:19:11;;;;;;;36.70;15.60;;;3.40;99.90;;;;;;5085587;28;20192;-63
2022/01/09 11:21:42;;;;;;;30.97;14.33;;;3.40;99.90;;;;;;5077706;28;20196;-62
2022/01/09 11:24:39;;;;;;;32.93;14.80;;;3.40;99.90;;;;;;5071305;28;20197;-62
2022/01/09 11:27:18;;;;;;;32.20;14.43;;;3.40;99.90;;;;;;5072929;28;20672;-62
2022/01/09 11:29:55;;;;;;;47.73;18.80;;;3.30;99.90;;;;;;5084692;28;20682;-62
2022/01/09 11:32:35;;;;;;;43.43;18.40;;;3.20;99.90;;;;;;5073315;28;20201;-62
2022/01/09 11:35:15;;;;;;;45.53;19.90;;;3.10;99.90;;;;;;5074456;28;20192;-62
2022/01/09 11:37:56;;;;;;;35.60;16.20;;;3.10;99.90;;;;;;5065507;28;20203;-62
2022/01/09 11:40:25;;;;;;;39.07;18.53;;;3.10;99.90;;;;;;5062546;28;20209;-62
2022/01/09 11:43:04;;;;;;;39.63;17.90;;;3.10;99.90;;;;;;5082430;28;20196;-61
2022/01/09 11:45:47;;;;;;;30.87;14.67;;;3.00;99.90;;;;;;5080208;28;20199;-62
2022/01/09 11:48:16;;;;;;;30.70;14.73;;;2.90;99.90;;;;;;5066852;28;20216;-62
2022/01/09 11:51:17;;;;;;;41.10;18.00;;;2.90;99.90;;;;;;5063737;28;20200;-62
2022/01/09 11:54:17;;;;;;;36.17;16.67;;;2.90;99.90;;;;;;5017298;28;20198;-62
2022/01/09 11:56:49;;;;;;;37.00;16.33;;;2.90;99.90;;;;;;4924719;29;20214;-62
2022/01/09 11:59:22;;;;;;;30.47;14.47;;;2.90;99.90;;;;;;5041082;28;20228;-62
2022/01/09 12:01:51;;;;;;;43.87;18.40;;;2.90;99.90;;;;;;5082415;28;20195;-62
2022/01/09 12:05:06;;;;;;;35.80;15.83;;;2.90;99.90;;;;;;5084745;28;20597;-62
2022/01/09 12:08:05;;;;;;;47.17;20.90;;;2.80;99.90;;;;;;5078420;28;20577;-62
2022/01/09 12:10:36;;;;;;;38.60;18.50;;;2.80;99.90;;;;;;5068174;28;20234;-63
2022/01/09 12:13:06;;;;;;;36.00;16.87;;;2.90;99.90;;;;;;5071581;28;20197;-62
2022/01/09 12:15:35;;;;;;;34.70;15.33;;;2.80;99.90;;;;;;5084890;28;20205;-64
2022/01/09 12:18:03;;;;;;;33.67;15.23;;;2.80;99.90;;;;;;5077203;28;20267;-61
2022/01/09 12:20:37;;;;;;;57.63;23.60;;;2.80;99.90;;;;;;5085972;28;20724;-61
2022/01/09 12:23:05;;;;;;;41.30;18.97;;;2.70;99.90;;;;;;5057462;28;20652;-61
2022/01/09 12:25:53;;;;;;;42.00;18.10;;;2.70;99.90;;;;;;5086841;28;20212;-61
2022/01/09 12:28:44;;;;;;;34.90;15.60;;;2.80;99.90;;;;;;5072130;28;20591;-61
2022/01/09 12:31:24;;;;;;;38.20;15.93;;;2.80;99.90;;;;;;5079311;28;20192;-61
2022/01/09 12:33:52;;;;;;;30.77;15.23;;;2.80;99.90;;;;;;5091381;28;20196;-62
2022/01/09 12:36:34;;;;;;;36.97;14.90;;;2.80;99.90;;;;;;5066572;28;20602;-62
2022/01/09 12:39:05;;;;;;;36.57;14.93;;;2.80;99.90;;;;;;5086776;28;20736;-61
2022/01/09 12:41:42;;;;;;;50.20;20.17;;;2.90;99.90;;;;;;5097178;28;20200;-62
2022/01/09 12:44:09;;;;;;;40.63;17.43;;;2.90;99.90;;;;;;5086700;28;20195;-62
2022/01/09 12:46:44;;;;;;;45.87;18.93;;;2.90;99.90;;;;;;5084125;28;20255;-62
2022/01/09 12:49:15;;;;;;;48.00;20.90;;;2.90;99.90;;;;;;5079137;28;20291;-62
2022/01/09 12:51:49;;;;;;;52.50;21.17;;;2.90;99.90;;;;;;5088661;28;20233;-61